Terminal Aerodrome Forecast
Issued by NWS

Home | Current Version | Previous Version | Text Only | Print | Product List | Glossary On
Versions: 1 2 3 4 5 6 7 8 9 10 11
337
FTUS42 KMLB 301738
TAFSFB
TAF
KSFB 301738Z 3018/3118 17009KT P6SM SCT060 SCT250
     FM302300 14007KT P6SM BKN060
     FM310300 19005KT P6SM SCT040
     FM311500 19014G20KT P6SM FEW030=

USA.gov is the U.S. government's official web portal to all federal, state and local government web resources and services.